createdAt,value
2018-01-28T18:02:32.195Z,1012.14
2018-01-28T18:03:32.157Z,1012.15
2018-01-28T18:04:32.149Z,1012.14
2018-01-28T18:05:32.118Z,1012.18
2018-01-28T18:06:32.101Z,1012.14
2018-01-28T18:07:32.096Z,1012.23
2018-01-28T18:08:32.067Z,1012.27
2018-01-28T18:09:32.061Z,1012.15
2018-01-28T18:10:32.035Z,1012.25
2018-01-28T18:11:32.013Z,1012.20
2018-01-28T18:12:31.987Z,1012.23
2018-01-28T18:13:31.965Z,1012.20
2018-01-28T18:14:31.945Z,1012.22
2018-01-28T18:15:31.925Z,1012.31
2018-01-28T18:16:31.910Z,1012.24
2018-01-28T18:17:31.907Z,1012.28
2018-01-28T18:18:31.881Z,1012.29
2018-01-28T18:19:31.868Z,1012.23
2018-01-28T18:20:31.847Z,1012.35
2018-01-28T18:21:31.839Z,1012.25
2018-01-28T18:22:31.801Z,1012.27
2018-01-28T18:23:31.785Z,1012.24
2018-01-28T18:24:31.769Z,1012.26
2018-01-28T18:25:31.762Z,1012.30
2018-01-28T18:26:31.734Z,1012.20
2018-01-28T18:27:31.715Z,1012.26
2018-01-28T18:28:31.698Z,1012.19
2018-01-28T18:29:31.691Z,1012.27
2018-01-28T18:30:31.679Z,1012.27
2018-01-28T18:31:31.649Z,1012.26
2018-01-28T18:32:31.628Z,1012.28
2018-01-28T18:33:31.608Z,1012.28
2018-01-28T18:34:31.592Z,1012.30
2018-01-28T18:35:31.579Z,1012.27
2018-01-28T18:36:31.573Z,1012.25
2018-01-28T18:37:31.550Z,1012.27
2018-01-28T18:38:31.541Z,1012.29
2018-01-28T18:39:31.535Z,1012.24
2018-01-28T18:40:31.509Z,1012.27
2018-01-28T18:41:31.488Z,1012.30
2018-01-28T18:42:31.482Z,1012.27
2018-01-28T18:43:31.466Z,1012.30
2018-01-28T18:44:31.434Z,1012.25
2018-01-28T18:45:31.428Z,1012.28
2018-01-28T18:46:31.455Z,1012.30
2018-01-28T18:47:31.380Z,1012.28
2018-01-28T18:48:31.370Z,1012.28
2018-01-28T18:49:31.348Z,1012.29
2018-01-28T18:50:31.372Z,1012.25
2018-01-28T18:51:31.310Z,1012.27
2018-01-28T18:52:31.277Z,1012.25
2018-01-28T18:53:31.268Z,1012.24
2018-01-28T18:54:31.254Z,1012.24
2018-01-28T18:55:31.220Z,1012.19
2018-01-28T18:56:31.220Z,1012.17
2018-01-28T18:57:31.185Z,1012.14
2018-01-28T18:58:31.185Z,1012.15
2018-01-28T18:59:31.149Z,1012.09
2018-01-28T19:00:31.159Z,1012.06
2018-01-28T19:01:31.148Z,1012.05
2018-01-28T19:02:31.226Z,1012.06
2018-01-28T19:03:31.106Z,1012.07
2018-01-28T19:04:31.121Z,1012.04
2018-01-28T19:05:31.073Z,1012.04
2018-01-28T19:06:31.064Z,1012.04
2018-01-28T19:07:31.035Z,1012.02
2018-01-28T19:08:30.999Z,1012.02
2018-01-28T19:09:31.000Z,1012.01
2018-01-28T19:10:31.015Z,1012.01
2018-01-28T19:11:30.938Z,1012.01
2018-01-28T19:12:30.922Z,1012.03
2018-01-28T19:13:30.903Z,1011.99
2018-01-28T19:14:30.885Z,1011.94
2018-01-28T19:15:30.871Z,1011.98
2018-01-28T19:16:30.853Z,1011.97
2018-01-28T19:17:30.846Z,1011.92
2018-01-28T19:18:30.818Z,1011.92
2018-01-28T19:19:30.802Z,1011.90
2018-01-28T19:20:30.785Z,1011.93
2018-01-28T19:21:30.757Z,1011.90
2018-01-28T19:22:30.745Z,1011.87
2018-01-28T19:23:30.743Z,1011.90
2018-01-28T19:24:30.708Z,1011.90
2018-01-28T19:25:30.696Z,1011.91
2018-01-28T19:26:30.671Z,1011.95
2018-01-28T19:27:30.655Z,1011.89
2018-01-28T19:28:30.670Z,1011.89
2018-01-28T19:29:30.628Z,1011.88
2018-01-28T19:30:30.614Z,1011.91
2018-01-28T19:31:30.592Z,1011.93
2018-01-28T19:32:30.575Z,1011.89
2018-01-28T19:33:30.592Z,1011.89
2018-01-28T19:34:30.537Z,1011.82
2018-01-28T19:35:30.518Z,1011.88
2018-01-28T19:36:30.534Z,1011.83
2018-01-28T19:37:30.497Z,1011.93
2018-01-28T19:38:30.472Z,1011.93
2018-01-28T19:39:30.450Z,1012.00
2018-01-28T19:40:30.449Z,1011.87
2018-01-28T19:41:30.456Z,1012.07
2018-01-28T19:42:30.421Z,1011.95
2018-01-28T19:43:30.382Z,1011.96
2018-01-28T19:44:30.369Z,1011.98
2018-01-28T19:45:30.347Z,1011.91
2018-01-28T19:46:30.322Z,1011.98
2018-01-28T19:47:30.318Z,1011.89
2018-01-28T19:48:30.322Z,1011.96
2018-01-28T19:49:30.271Z,1011.97
2018-01-28T19:50:30.315Z,1011.93
2018-01-28T19:51:30.242Z,1011.93
2018-01-28T19:52:30.217Z,1012.01
2018-01-28T19:53:30.207Z,1011.99
2018-01-28T19:54:30.184Z,1011.98
2018-01-28T19:55:30.169Z,1012.01
2018-01-28T19:56:30.156Z,1012.00
2018-01-28T19:57:30.782Z,1011.96
2018-01-28T19:58:30.117Z,1012.02
2018-01-28T19:59:30.091Z,1011.94
2018-01-28T20:00:30.082Z,1011.94
2018-01-28T20:01:30.066Z,1011.92
2018-01-28T20:02:30.056Z,1011.88
2018-01-28T20:03:30.031Z,1011.94
2018-01-28T20:04:30.008Z,1011.95
2018-01-28T20:05:29.998Z,1012.02
2018-01-28T20:06:29.975Z,1011.95
2018-01-28T20:07:29.957Z,1012.01
2018-01-28T20:08:29.932Z,1011.98
2018-01-28T20:09:29.931Z,1012.01
2018-01-28T20:10:29.899Z,1011.94
2018-01-28T20:11:29.888Z,1011.92
2018-01-28T20:12:29.885Z,1011.92
2018-01-28T20:13:29.852Z,1011.84
2018-01-28T20:14:29.838Z,1011.88
2018-01-28T20:15:29.815Z,1011.81
2018-01-28T20:16:29.796Z,1011.78
2018-01-28T20:17:29.780Z,1011.79
2018-01-28T20:18:29.773Z,1011.78
2018-01-28T20:19:29.754Z,1011.84
2018-01-28T20:20:29.728Z,1011.77
2018-01-28T20:21:29.712Z,1011.74
2018-01-28T20:22:29.701Z,1011.82
2018-01-28T20:23:29.680Z,1011.78
2018-01-28T20:24:29.655Z,1011.79
2018-01-28T20:25:29.646Z,1011.81
2018-01-28T20:26:29.620Z,1011.83
2018-01-28T20:27:29.604Z,1011.79
2018-01-28T20:28:29.630Z,1011.79
2018-01-28T20:29:29.578Z,1011.84
2018-01-28T20:30:29.568Z,1011.85
2018-01-28T20:31:29.558Z,1011.84
2018-01-28T20:32:29.523Z,1011.83
2018-01-28T20:33:29.507Z,1011.75
2018-01-28T20:34:29.485Z,1011.81
2018-01-28T20:35:29.469Z,1011.83
2018-01-28T20:36:29.446Z,1011.85
2018-01-28T20:37:29.434Z,1011.86
2018-01-28T20:38:29.421Z,1011.88
2018-01-28T20:39:29.394Z,1011.89
2018-01-28T20:40:29.373Z,1011.85
2018-01-28T20:41:29.367Z,1011.89
2018-01-28T20:42:29.341Z,1011.89
2018-01-28T20:43:29.338Z,1011.81
2018-01-28T20:44:29.303Z,1011.85
2018-01-28T20:45:29.292Z,1011.83
2018-01-28T20:46:29.267Z,1011.84
2018-01-28T20:47:29.260Z,1011.90
2018-01-28T20:48:29.238Z,1011.86
2018-01-28T20:49:29.222Z,1011.76
2018-01-28T20:50:29.202Z,1011.92
2018-01-28T20:51:29.174Z,1011.85
2018-01-28T20:52:29.190Z,1011.86
2018-01-28T20:53:29.165Z,1011.87
2018-01-28T20:54:29.162Z,1011.89
2018-01-28T20:55:29.116Z,1011.89
2018-01-28T20:56:29.098Z,1011.90
2018-01-28T20:57:29.093Z,1011.93
2018-01-28T20:58:29.072Z,1011.87
2018-01-28T20:59:29.048Z,1011.82
2018-01-28T21:00:29.035Z,1011.85
2018-01-28T21:01:29.012Z,1011.88
2018-01-28T21:02:28.986Z,1011.90
2018-01-28T21:03:28.987Z,1011.85
2018-01-28T21:04:28.967Z,1011.87
2018-01-28T21:05:28.942Z,1011.90
2018-01-28T21:06:28.927Z,1011.86
2018-01-28T21:07:28.904Z,1011.89
2018-01-28T21:08:28.910Z,1011.92
2018-01-28T21:09:28.871Z,1011.86
2018-01-28T21:10:28.859Z,1011.89
2018-01-28T21:11:28.836Z,1011.88
2018-01-28T21:12:28.820Z,1011.93
2018-01-28T21:13:28.804Z,1011.93
2018-01-28T21:14:28.783Z,1011.90
2018-01-28T21:15:28.766Z,1011.89
2018-01-28T21:16:28.756Z,1011.99
2018-01-28T21:17:28.733Z,1011.95
2018-01-28T21:18:28.715Z,1011.91
2018-01-28T21:19:28.690Z,1011.93
2018-01-28T21:20:28.674Z,1011.89
2018-01-28T21:21:28.664Z,1011.87
2018-01-28T21:22:28.648Z,1011.93
2018-01-28T21:23:28.630Z,1011.90
2018-01-28T21:24:28.609Z,1011.93
2018-01-28T21:25:28.590Z,1011.91
2018-01-28T21:26:28.571Z,1011.85
2018-01-28T21:27:28.562Z,1011.88
2018-01-28T21:28:28.546Z,1011.92
2018-01-28T21:29:28.530Z,1011.89
2018-01-28T21:30:28.500Z,1011.85
2018-01-28T21:31:28.488Z,1011.89
2018-01-28T21:32:28.463Z,1011.84
2018-01-28T21:33:28.451Z,1011.87
2018-01-28T21:34:28.444Z,1011.82
2018-01-28T21:35:28.425Z,1011.84
2018-01-28T21:36:28.402Z,1011.79
2018-01-28T21:37:28.396Z,1011.83
2018-01-28T21:38:28.367Z,1011.77
2018-01-28T21:39:28.358Z,1011.75
2018-01-28T21:40:28.332Z,1011.76
2018-01-28T21:41:28.361Z,1011.67
2018-01-28T21:42:28.303Z,1011.72
2018-01-28T21:43:28.276Z,1011.77
2018-01-28T21:44:28.269Z,1011.75
2018-01-28T21:45:28.246Z,1011.74
2018-01-28T21:46:28.231Z,1011.72
2018-01-28T21:47:28.208Z,1011.78
2018-01-28T21:48:28.212Z,1011.73
2018-01-28T21:49:28.170Z,1011.76
2018-01-28T21:50:28.167Z,1011.79
2018-01-28T21:51:28.142Z,1011.76
2018-01-28T21:52:28.122Z,1011.80
2018-01-28T21:53:28.103Z,1011.80
2018-01-28T21:54:28.082Z,1011.79
2018-01-28T21:55:28.069Z,1011.75
2018-01-28T21:56:28.060Z,1011.74
2018-01-28T21:57:28.037Z,1011.74
2018-01-28T21:58:28.031Z,1011.71
2018-01-28T21:59:27.999Z,1011.74
2018-01-28T22:00:27.980Z,1011.73
2018-01-28T22:01:27.961Z,1011.75
2018-01-28T22:02:27.941Z,1011.77
2018-01-28T22:03:27.935Z,1011.75
2018-01-28T22:04:27.912Z,1011.76
2018-01-28T22:05:27.894Z,1011.75
2018-01-28T22:06:27.885Z,1011.75
2018-01-28T22:07:27.859Z,1011.70
2018-01-28T22:08:27.840Z,1011.72
2018-01-28T22:09:27.818Z,1011.73
2018-01-28T22:10:27.801Z,1011.69
2018-01-28T22:11:27.834Z,1011.69
2018-01-28T22:12:27.776Z,1011.65
2018-01-28T22:13:27.760Z,1011.64
2018-01-28T22:14:27.738Z,1011.65
2018-01-28T22:15:27.725Z,1011.60
2018-01-28T22:16:27.697Z,1011.56
2018-01-28T22:17:27.680Z,1011.54
2018-01-28T22:18:27.666Z,1011.59
2018-01-28T22:19:27.650Z,1011.55
2018-01-28T22:20:27.638Z,1011.54
2018-01-28T22:21:27.615Z,1011.60
2018-01-28T22:22:27.599Z,1011.57
2018-01-28T22:23:27.603Z,1011.55
2018-01-28T22:24:27.567Z,1011.54
2018-01-28T22:25:27.545Z,1011.57
2018-01-28T22:26:27.528Z,1011.60
2018-01-28T22:27:27.513Z,1011.57
2018-01-28T22:28:27.512Z,1011.48
2018-01-28T22:29:27.479Z,1011.57
2018-01-28T22:30:27.454Z,1011.54
2018-01-28T22:31:27.446Z,1011.57
2018-01-28T22:32:27.425Z,1011.54
2018-01-28T22:33:27.409Z,1011.59
2018-01-28T22:34:27.396Z,1011.62
2018-01-28T22:35:27.377Z,1011.48
2018-01-28T22:36:27.364Z,1011.53
2018-01-28T22:37:27.348Z,1011.47
2018-01-28T22:38:27.317Z,1011.52
2018-01-28T22:39:27.310Z,1011.52
2018-01-28T22:40:27.301Z,1011.55
2018-01-28T22:41:27.276Z,1011.52
2018-01-28T22:42:27.262Z,1011.55
2018-01-28T22:43:27.236Z,1011.52
2018-01-28T22:44:27.217Z,1011.50
2018-01-28T22:45:27.204Z,1011.47
2018-01-28T22:46:27.185Z,1011.49
2018-01-28T22:47:27.225Z,1011.45
2018-01-28T22:48:27.150Z,1011.44
2018-01-28T22:49:27.131Z,1011.45
2018-01-28T22:50:27.111Z,1011.47
2018-01-28T22:51:27.098Z,1011.44
2018-01-28T22:52:27.079Z,1011.44
2018-01-28T22:53:27.063Z,1011.42
2018-01-28T22:54:27.041Z,1011.41
2018-01-28T22:55:27.031Z,1011.43
2018-01-28T22:56:27.021Z,1011.45
2018-01-28T22:57:26.999Z,1011.47
2018-01-28T22:58:26.977Z,1011.43
2018-01-28T22:59:26.954Z,1011.43
2018-01-28T23:00:26.941Z,1011.47
2018-01-28T23:01:26.932Z,1011.45
2018-01-28T23:02:26.913Z,1011.44
2018-01-28T23:03:26.883Z,1011.44
2018-01-28T23:04:26.922Z,1011.43
2018-01-28T23:05:26.929Z,1011.43
2018-01-28T23:06:26.835Z,1011.42
2018-01-28T23:07:26.810Z,1011.41
2018-01-28T23:08:26.800Z,1011.41
2018-01-28T23:09:26.780Z,1011.38
2018-01-28T23:10:26.768Z,1011.36
2018-01-28T23:11:26.742Z,1011.44
2018-01-28T23:12:26.732Z,1011.42
2018-01-28T23:13:26.725Z,1011.46
2018-01-28T23:14:26.732Z,1011.46
2018-01-28T23:15:26.683Z,1011.43
2018-01-28T23:16:26.665Z,1011.48
2018-01-28T23:17:26.654Z,1011.44
2018-01-28T23:18:26.619Z,1011.47
2018-01-28T23:19:26.606Z,1011.48
2018-01-28T23:20:26.597Z,1011.51
2018-01-28T23:21:26.568Z,1011.52
2018-01-28T23:22:26.555Z,1011.52
2018-01-28T23:23:26.534Z,1011.50
2018-01-28T23:24:26.547Z,1011.50
2018-01-28T23:25:26.594Z,1011.49
2018-01-28T23:26:26.488Z,1011.50
2018-01-28T23:27:26.453Z,1011.52
2018-01-28T23:28:26.488Z,1011.49
2018-01-28T23:29:26.438Z,1011.50
2018-01-28T23:30:26.424Z,1011.48
2018-01-28T23:31:26.396Z,1011.56
2018-01-28T23:32:26.425Z,1011.49
2018-01-28T23:33:26.356Z,1011.52
2018-01-28T23:34:26.341Z,1011.52
2018-01-28T23:35:26.350Z,1011.49
2018-01-28T23:36:26.316Z,1011.50
2018-01-28T23:37:26.287Z,1011.51
2018-01-28T23:38:26.275Z,1011.51
2018-01-28T23:39:26.252Z,1011.51
2018-01-28T23:40:26.239Z,1011.53
2018-01-28T23:41:26.217Z,1011.52
2018-01-28T23:42:26.207Z,1011.49
2018-01-28T23:43:26.185Z,1011.51
2018-01-28T23:44:26.169Z,1011.52
2018-01-28T23:45:26.152Z,1011.53
2018-01-28T23:46:26.131Z,1011.53
2018-01-28T23:47:26.116Z,1011.52
2018-01-28T23:48:26.089Z,1011.51
2018-01-28T23:49:26.080Z,1011.55
2018-01-28T23:50:26.057Z,1011.55
2018-01-28T23:51:26.041Z,1011.55
2018-01-28T23:52:26.041Z,1011.50
2018-01-28T23:53:26.012Z,1011.49
2018-01-28T23:54:25.996Z,1011.51
2018-01-28T23:55:25.977Z,1011.52
2018-01-28T23:56:25.958Z,1011.50
2018-01-28T23:57:25.932Z,1011.49
2018-01-28T23:58:25.926Z,1011.45
2018-01-28T23:59:25.907Z,1011.51
